Time;durP1;ratioP1;P1;durP2;ratioP2;P2;SDS_P1;SDS_P2;PMS_P1;PMS_P2;Temp;Humidity;BMP_temperature;BMP_pressure;BME280_temperature;BME280_humidity;BME280_pressure;Samples;Min_cycle;Max_cycle;Signal;HPM_P1;HPM_P2
2022/06/30 00:00:08;;;;;;;12.82;10.02;;;21.90;99.90;;;;;;4999993;28;20211;-70
2022/06/30 00:02:38;;;;;;;13.68;9.73;;;21.90;99.90;;;;;;5002873;28;20846;-68
2022/06/30 00:05:05;;;;;;;12.75;10.15;;;22.00;99.90;;;;;;4999302;28;20213;-68
2022/06/30 00:07:32;;;;;;;13.98;9.95;;;21.90;99.90;;;;;;5002758;28;20196;-68
2022/06/30 00:09:58;;;;;;;12.43;9.70;;;21.80;99.90;;;;;;4996540;28;20189;-68
2022/06/30 00:12:25;;;;;;;11.65;9.90;;;21.90;99.90;;;;;;5004540;28;20675;-68
2022/06/30 00:14:52;;;;;;;11.32;9.48;;;21.80;99.90;;;;;;5000107;28;20220;-68
2022/06/30 00:17:19;;;;;;;13.70;9.55;;;21.70;99.90;;;;;;5001468;28;20200;-68
2022/06/30 00:19:45;;;;;;;12.30;9.50;;;21.60;99.90;;;;;;5000853;28;20685;-69
2022/06/30 00:22:13;;;;;;;11.10;9.20;;;21.40;99.90;;;;;;4999232;28;20209;-68
2022/06/30 00:24:40;;;;;;;11.57;9.55;;;21.30;99.90;;;;;;5007831;28;20274;-68
2022/06/30 00:27:07;;;;;;;12.45;9.85;;;21.20;99.90;;;;;;4999148;28;20192;-68
2022/06/30 00:29:33;;;;;;;12.93;10.30;;;21.20;99.90;;;;;;5003368;28;20219;-69
2022/06/30 00:32:00;;;;;;;13.18;9.65;;;21.00;99.90;;;;;;4999123;28;20200;-68
2022/06/30 00:34:27;;;;;;;10.82;9.57;;;21.00;99.90;;;;;;4999410;28;20225;-68
2022/06/30 00:36:55;;;;;;;12.88;10.18;;;21.00;99.90;;;;;;4999383;28;20695;-68
2022/06/30 00:39:22;;;;;;;12.90;10.30;;;20.90;99.90;;;;;;5000537;28;20193;-69
2022/06/30 00:41:49;;;;;;;13.65;9.70;;;20.80;99.90;;;;;;5005384;28;20219;-68
2022/06/30 00:44:16;;;;;;;12.18;9.95;;;20.70;99.90;;;;;;5001930;28;20197;-69
2022/06/30 00:46:44;;;;;;;13.27;9.85;;;20.60;99.90;;;;;;4998468;28;20254;-68
2022/06/30 00:49:10;;;;;;;12.15;10.05;;;20.60;99.90;;;;;;4995134;28;20204;-69
2022/06/30 00:51:37;;;;;;;12.07;10.23;;;20.50;99.90;;;;;;5002060;28;20205;-68
2022/06/30 00:54:06;;;;;;;13.10;10.73;;;20.50;99.90;;;;;;5002113;28;20205;-68
2022/06/30 00:56:41;;;;;;;11.27;10.07;;;20.50;99.90;;;;;;4999877;28;20565;-68
2022/06/30 00:59:09;;;;;;;11.55;9.48;;;20.60;99.90;;;;;;4998401;28;20291;-68
2022/06/30 01:01:36;;;;;;;12.50;10.05;;;20.50;99.90;;;;;;4996447;28;20200;-68
2022/06/30 01:04:03;;;;;;;12.55;11.05;;;20.50;99.90;;;;;;4997576;28;20216;-68
2022/06/30 01:06:30;;;;;;;14.30;11.60;;;20.50;99.90;;;;;;4995099;28;20193;-68
2022/06/30 01:08:57;;;;;;;13.50;11.27;;;20.80;99.90;;;;;;4998167;28;20189;-69
2022/06/30 01:14:09;;;;;;;15.50;11.32;;;20.90;99.90;;;;;;4997071;28;20207;-70
2022/06/30 01:16:41;;;;;;;16.37;11.23;;;20.70;99.90;;;;;;5000578;28;20251;-68
2022/06/30 01:19:08;;;;;;;15.17;11.97;;;20.70;99.90;;;;;;4997492;28;20267;-68
2022/06/30 01:21:35;;;;;;;14.97;11.90;;;20.50;99.90;;;;;;5005520;28;20207;-68
2022/06/30 01:24:02;;;;;;;19.70;12.10;;;20.40;99.90;;;;;;4996525;28;20189;-68
2022/06/30 01:26:28;;;;;;;15.23;11.73;;;20.20;99.90;;;;;;5004805;28;20189;-68
2022/06/30 01:28:56;;;;;;;18.10;11.97;;;20.20;99.90;;;;;;4997349;28;20200;-69
2022/06/30 01:31:24;;;;;;;20.73;12.50;;;20.20;99.90;;;;;;4996807;28;20193;-68
2022/06/30 01:33:50;;;;;;;14.83;12.27;;;20.30;99.90;;;;;;4997924;28;20574;-68
2022/06/30 01:36:17;;;;;;;16.90;12.33;;;20.30;99.90;;;;;;4995832;28;20228;-68
2022/06/30 01:38:44;;;;;;;18.27;12.50;;;20.40;99.90;;;;;;4996133;28;20209;-68
2022/06/30 01:41:11;;;;;;;16.50;11.77;;;20.40;99.90;;;;;;5021604;28;20197;-69
2022/06/30 01:43:37;;;;;;;15.40;12.30;;;20.30;99.90;;;;;;5002628;28;20240;-68
2022/06/30 01:46:04;;;;;;;17.30;12.10;;;20.10;99.90;;;;;;5008421;28;20554;-68
2022/06/30 01:48:31;;;;;;;17.33;11.87;;;20.10;99.90;;;;;;5009694;28;20223;-68
2022/06/30 01:50:57;;;;;;;15.77;12.10;;;20.00;99.90;;;;;;5007197;28;20208;-66
2022/06/30 01:53:24;;;;;;;17.70;12.40;;;20.00;99.90;;;;;;5006967;28;20287;-66
2022/06/30 01:55:51;;;;;;;14.33;12.00;;;20.20;99.90;;;;;;5004044;28;20626;-68
2022/06/30 01:58:17;;;;;;;13.57;11.33;;;20.20;99.90;;;;;;5006876;28;20271;-68
2022/06/30 02:00:44;;;;;;;13.23;10.80;;;20.00;99.90;;;;;;5005864;28;20210;-69
2022/06/30 02:03:11;;;;;;;15.67;12.17;;;19.80;99.90;;;;;;5009475;28;20223;-69
2022/06/30 02:05:38;;;;;;;16.03;12.33;;;19.70;99.90;;;;;;5006046;28;20223;-68
2022/06/30 02:08:05;;;;;;;15.53;12.43;;;19.70;99.90;;;;;;5007434;28;20203;-68
2022/06/30 02:10:31;;;;;;;15.30;12.07;;;19.90;99.90;;;;;;5012384;28;20454;-68
2022/06/30 02:12:58;;;;;;;16.23;11.33;;;19.90;99.90;;;;;;5013444;28;20284;-68
2022/06/30 02:15:33;;;;;;;15.90;12.10;;;19.90;99.90;;;;;;5008837;28;20216;-68
2022/06/30 02:18:03;;;;;;;15.30;12.13;;;19.90;99.90;;;;;;5004306;28;20192;-68
2022/06/30 02:20:29;;;;;;;18.37;12.80;;;19.90;99.90;;;;;;5009426;28;20223;-68
2022/06/30 02:22:59;;;;;;;15.10;12.20;;;20.00;99.90;;;;;;5009019;28;20224;-69
2022/06/30 02:25:27;;;;;;;15.77;11.57;;;20.10;99.90;;;;;;5009152;28;20216;-68
2022/06/30 02:27:55;;;;;;;15.33;12.00;;;20.00;99.90;;;;;;5006431;28;20204;-68
2022/06/30 02:30:22;;;;;;;14.70;11.33;;;19.90;99.90;;;;;;5009271;28;20207;-68
2022/06/30 02:32:49;;;;;;;13.83;11.27;;;19.90;99.90;;;;;;5008983;28;20681;-69
2022/06/30 02:35:16;;;;;;;12.80;10.73;;;19.70;99.90;;;;;;5003845;28;20220;-68
2022/06/30 02:37:43;;;;;;;13.57;10.93;;;19.60;99.90;;;;;;5007690;28;20219;-68
2022/06/30 02:40:10;;;;;;;15.43;11.23;;;19.50;99.90;;;;;;5009579;28;20208;-69
2022/06/30 02:42:37;;;;;;;14.97;11.23;;;19.40;99.90;;;;;;5008712;28;20752;-68
2022/06/30 02:45:05;;;;;;;15.63;12.03;;;19.50;99.90;;;;;;5004125;28;20705;-68
2022/06/30 02:47:37;;;;;;;16.70;11.53;;;19.50;99.90;;;;;;5009273;28;20196;-69
2022/06/30 02:50:06;;;;;;;18.37;12.13;;;19.50;99.90;;;;;;5009470;28;20192;-70
2022/06/30 02:52:34;;;;;;;15.20;12.33;;;19.60;99.90;;;;;;5007850;28;20694;-68
2022/06/30 02:55:02;;;;;;;15.93;11.60;;;19.70;99.90;;;;;;5003790;28;20216;-68
2022/06/30 02:57:29;;;;;;;14.43;11.70;;;19.60;99.90;;;;;;5007790;28;20211;-69
2022/06/30 02:59:56;;;;;;;14.53;11.77;;;19.40;99.90;;;;;;5008389;28;20581;-68
2022/06/30 03:02:22;;;;;;;16.13;11.13;;;19.40;99.90;;;;;;5008020;28;20627;-68
2022/06/30 03:04:49;;;;;;;16.83;12.33;;;19.50;99.90;;;;;;5008141;28;20223;-68
2022/06/30 03:07:17;;;;;;;16.10;12.03;;;19.40;99.90;;;;;;5009132;28;20218;-66
2022/06/30 03:09:43;;;;;;;15.03;12.07;;;19.40;99.90;;;;;;5008794;28;20200;-66
2022/06/30 03:12:10;;;;;;;15.87;12.30;;;19.40;99.90;;;;;;5008008;28;20480;-66
2022/06/30 03:14:37;;;;;;;16.40;12.40;;;19.30;99.90;;;;;;5006636;28;20721;-66
2022/06/30 03:17:04;;;;;;;16.60;12.40;;;19.30;99.90;;;;;;5008792;28;20188;-66
2022/06/30 03:19:31;;;;;;;15.90;12.87;;;19.30;99.90;;;;;;5007894;28;20203;-69
2022/06/30 03:21:57;;;;;;;15.20;11.47;;;19.20;99.90;;;;;;5008694;28;20659;-68
2022/06/30 03:24:24;;;;;;;13.70;11.27;;;19.10;99.90;;;;;;5008302;28;20227;-68
2022/06/30 03:26:51;;;;;;;16.40;12.13;;;18.90;99.90;;;;;;5008776;28;20220;-68
2022/06/30 03:29:17;;;;;;;16.70;12.67;;;18.90;99.90;;;;;;5003952;28;20192;-68
2022/06/30 03:31:44;;;;;;;17.13;12.80;;;18.90;99.90;;;;;;5007303;28;20207;-69
2022/06/30 03:34:11;;;;;;;17.13;12.87;;;19.00;99.90;;;;;;5009048;28;20224;-68
2022/06/30 03:36:38;;;;;;;14.90;11.63;;;19.10;99.90;;;;;;5008380;28;20218;-68
2022/06/30 03:39:05;;;;;;;13.60;11.47;;;19.10;99.90;;;;;;5007613;28;20200;-68
2022/06/30 03:41:31;;;;;;;16.20;11.67;;;19.10;99.90;;;;;;5007338;28;20204;-68
2022/06/30 03:43:58;;;;;;;13.20;11.10;;;19.20;99.90;;;;;;5007722;28;20219;-69
2022/06/30 03:46:25;;;;;;;15.63;11.60;;;19.10;99.90;;;;;;5006879;28;20603;-68
2022/06/30 03:48:51;;;;;;;15.03;11.97;;;19.10;99.90;;;;;;5010809;28;20195;-68
2022/06/30 03:51:18;;;;;;;15.73;12.43;;;19.20;99.90;;;;;;5010687;28;20200;-70
2022/06/30 03:53:45;;;;;;;14.37;11.37;;;19.30;99.90;;;;;;5010544;28;20207;-69
2022/06/30 03:56:12;;;;;;;14.37;11.07;;;19.30;99.90;;;;;;5008849;28;20223;-68
2022/06/30 03:58:38;;;;;;;15.27;11.50;;;19.30;99.90;;;;;;5008614;28;20254;-66
2022/06/30 04:01:05;;;;;;;13.97;10.93;;;19.30;99.90;;;;;;5011845;28;20587;-68
2022/06/30 04:03:32;;;;;;;13.93;11.00;;;19.40;99.90;;;;;;5014274;28;20216;-68
2022/06/30 04:05:58;;;;;;;16.67;11.60;;;19.40;99.90;;;;;;5011248;28;20594;-68
2022/06/30 04:08:26;;;;;;;14.17;11.03;;;19.40;99.90;;;;;;5006598;28;20196;-69
2022/06/30 04:10:53;;;;;;;15.70;11.47;;;19.30;99.90;;;;;;5010440;28;20192;-68
2022/06/30 04:13:19;;;;;;;17.30;11.50;;;19.30;99.90;;;;;;5007580;28;20192;-70
2022/06/30 04:15:46;;;;;;;14.93;10.27;;;19.20;99.90;;;;;;5010915;28;20681;-69
2022/06/30 04:18:13;;;;;;;11.63;10.00;;;19.30;99.90;;;;;;5010493;28;20200;-68
2022/06/30 04:20:39;;;;;;;13.43;10.50;;;19.30;99.90;;;;;;5009693;28;20339;-68
2022/06/30 04:23:06;;;;;;;12.07;9.90;;;19.30;99.90;;;;;;5011568;28;20222;-69
2022/06/30 04:25:34;;;;;;;14.23;11.03;;;19.30;99.90;;;;;;5010814;28;20957;-68
2022/06/30 04:28:01;;;;;;;14.27;11.40;;;19.40;99.90;;;;;;5006161;28;20192;-69
2022/06/30 04:33:13;;;;;;;15.07;10.83;;;19.40;99.90;;;;;;5011936;28;20250;-68
2022/06/30 04:35:40;;;;;;;14.40;10.53;;;19.50;99.90;;;;;;5011015;28;20232;-68
2022/06/30 04:38:07;;;;;;;16.73;11.87;;;19.40;99.90;;;;;;5018539;28;20665;-69
2022/06/30 04:43:20;;;;;;;17.50;12.00;;;19.50;99.90;;;;;;5008199;28;20243;-68
2022/06/30 04:45:46;;;;;;;18.63;12.17;;;19.50;99.90;;;;;;5005526;28;20335;-68
2022/06/30 04:48:13;;;;;;;16.50;12.07;;;19.60;99.90;;;;;;5006893;28;20193;-69
2022/06/30 04:50:40;;;;;;;16.57;10.97;;;19.70;99.90;;;;;;5009779;28;20196;-68
2022/06/30 04:53:07;;;;;;;14.50;11.60;;;20.00;99.90;;;;;;5011046;28;20662;-69
2022/06/30 04:55:34;;;;;;;14.30;11.10;;;20.00;99.90;;;;;;5007475;28;20228;-68
2022/06/30 04:58:01;;;;;;;12.67;10.53;;;20.10;99.90;;;;;;5009753;28;20192;-68
2022/06/30 05:00:28;;;;;;;15.60;10.77;;;20.10;99.90;;;;;;5010442;28;20598;-68
2022/06/30 05:02:55;;;;;;;14.83;10.50;;;20.30;99.90;;;;;;5010677;28;20567;-69
2022/06/30 05:05:21;;;;;;;11.93;8.73;;;20.30;99.90;;;;;;5007960;28;20219;-69
2022/06/30 05:07:48;;;;;;;12.30;9.63;;;20.30;99.90;;;;;;5010458;28;20207;-68
2022/06/30 05:10:15;;;;;;;13.20;9.93;;;20.30;99.90;;;;;;5016218;28;20203;-68
2022/06/30 05:12:41;;;;;;;12.70;10.27;;;20.40;99.90;;;;;;5016064;28;20194;-69
2022/06/30 05:15:08;;;;;;;14.52;11.07;;;20.50;99.90;;;;;;5010863;28;20208;-69
2022/06/30 05:17:36;;;;;;;14.30;10.07;;;20.60;99.90;;;;;;5010364;28;20204;-68
2022/06/30 05:20:03;;;;;;;13.60;10.57;;;20.70;99.90;;;;;;5000650;28;20592;-69
2022/06/30 05:22:30;;;;;;;15.93;10.75;;;20.80;99.90;;;;;;5004307;28;20189;-69
2022/06/30 05:27:46;;;;;;;16.50;11.82;;;20.90;99.90;;;;;;5007621;28;20855;-68
2022/06/30 05:30:16;;;;;;;18.80;11.63;;;21.20;99.90;;;;;;5010308;28;20196;-68
2022/06/30 05:32:44;;;;;;;20.45;11.70;;;21.40;99.90;;;;;;5007378;28;20208;-68
2022/06/30 05:35:12;;;;;;;19.33;11.60;;;21.50;99.90;;;;;;5009597;28;20220;-70
2022/06/30 05:37:39;;;;;;;14.98;10.93;;;21.50;99.90;;;;;;5009822;28;20678;-69
2022/06/30 05:40:06;;;;;;;19.10;12.05;;;21.50;99.90;;;;;;5007497;28;20203;-69
2022/06/30 05:42:33;;;;;;;15.75;11.32;;;21.50;99.90;;;;;;5009960;28;20399;-68
2022/06/30 05:45:00;;;;;;;16.02;9.98;;;21.50;99.90;;;;;;5009331;28;20219;-69
2022/06/30 05:47:27;;;;;;;16.88;11.27;;;21.70;99.90;;;;;;5009725;28;20196;-69
2022/06/30 05:49:54;;;;;;;16.52;10.73;;;21.90;99.90;;;;;;5005516;28;20196;-69
2022/06/30 05:52:20;;;;;;;13.77;10.73;;;22.00;99.90;;;;;;5007146;28;20633;-68
2022/06/30 05:54:47;;;;;;;19.38;11.38;;;22.10;99.90;;;;;;5009318;28;20216;-68
2022/06/30 05:57:14;;;;;;;14.23;11.60;;;22.20;99.90;;;;;;5008715;28;20200;-68
2022/06/30 05:59:41;;;;;;;13.55;10.88;;;22.40;99.90;;;;;;5005878;28;20199;-68
2022/06/30 06:02:08;;;;;;;14.27;10.40;;;22.40;99.90;;;;;;5012411;28;20566;-68
2022/06/30 06:04:35;;;;;;;14.82;10.27;;;22.30;99.90;;;;;;5008974;28;20228;-68
2022/06/30 06:07:05;;;;;;;14.70;11.00;;;22.50;99.90;;;;;;5004006;28;20196;-69
2022/06/30 06:09:31;;;;;;;17.13;10.40;;;22.60;99.90;;;;;;5008521;28;20195;-69
2022/06/30 06:11:58;;;;;;;13.63;9.73;;;22.80;99.90;;;;;;5007655;28;20193;-69
2022/06/30 06:14:25;;;;;;;11.70;9.70;;;22.90;99.90;;;;;;5003576;28;20228;-69
2022/06/30 06:16:51;;;;;;;14.10;10.95;;;22.90;99.90;;;;;;5007742;28;20597;-68
2022/06/30 06:19:18;;;;;;;12.10;9.27;;;23.10;99.90;;;;;;5009529;28;20200;-68
2022/06/30 06:21:49;;;;;;;12.57;9.20;;;23.30;99.90;;;;;;5009647;28;20270;-69
2022/06/30 06:24:17;;;;;;;15.80;10.90;;;23.50;99.90;;;;;;5006304;28;20224;-68
2022/06/30 06:26:44;;;;;;;14.68;9.30;;;24.00;99.90;;;;;;5007997;28;20287;-68
2022/06/30 06:29:13;;;;;;;13.10;9.13;;;24.20;99.90;;;;;;5006354;28;20195;-68
2022/06/30 06:31:41;;;;;;;12.20;9.65;;;24.20;99.90;;;;;;5008863;28;20204;-69
2022/06/30 06:34:08;;;;;;;14.70;10.45;;;24.20;99.90;;;;;;5011935;28;20574;-68
2022/06/30 06:36:35;;;;;;;14.95;10.20;;;23.90;99.90;;;;;;5009183;28;20215;-68
2022/06/30 06:39:02;;;;;;;16.10;10.35;;;23.70;99.90;;;;;;5009401;28;20207;-69
2022/06/30 06:41:29;;;;;;;14.30;9.68;;;23.60;99.90;;;;;;5003893;28;20196;-68
2022/06/30 06:43:56;;;;;;;12.05;9.15;;;23.70;99.90;;;;;;5009555;28;20231;-68
2022/06/30 06:46:26;;;;;;;15.25;10.13;;;23.80;99.90;;;;;;5008898;28;20635;-68
2022/06/30 06:49:05;;;;;;;12.65;9.52;;;23.90;99.90;;;;;;5008243;28;20197;-69
2022/06/30 06:51:32;;;;;;;15.55;8.85;;;24.00;99.90;;;;;;5007947;28;20188;-66
2022/06/30 06:53:59;;;;;;;11.13;9.45;;;24.20;99.90;;;;;;5002022;28;20617;-66
2022/06/30 06:56:27;;;;;;;14.30;9.60;;;24.40;99.90;;;;;;5009417;28;20204;-67
2022/06/30 06:58:59;;;;;;;11.13;9.05;;;24.60;99.90;;;;;;5006568;28;20262;-66
2022/06/30 07:01:26;;;;;;;12.73;9.57;;;24.80;99.90;;;;;;5006998;28;20621;-66
2022/06/30 07:03:53;;;;;;;16.20;9.80;;;25.10;99.90;;;;;;5007760;28;20258;-67
2022/06/30 07:06:20;;;;;;;11.80;9.15;;;25.40;99.90;;;;;;5007939;28;20216;-66
2022/06/30 07:08:46;;;;;;;13.60;8.75;;;25.80;99.90;;;;;;5006085;28;20503;-66
2022/06/30 07:11:13;;;;;;;11.30;9.00;;;26.40;99.90;;;;;;5009112;28;20233;-66
2022/06/30 07:13:40;;;;;;;12.00;9.45;;;27.40;99.90;;;;;;5009035;28;20227;-66
2022/06/30 07:16:06;;;;;;;13.20;8.20;;;28.20;99.90;;;;;;5006576;28;20705;-66
2022/06/30 07:18:33;;;;;;;12.18;8.80;;;28.90;99.90;;;;;;5002832;28;20200;-66
2022/06/30 07:21:00;;;;;;;12.27;8.77;;;29.70;99.90;;;;;;5008700;28;20206;-66
2022/06/30 07:23:27;;;;;;;10.43;9.02;;;30.30;99.90;;;;;;5011924;28;20288;-66
2022/06/30 07:25:56;;;;;;;12.88;8.70;;;30.90;99.90;;;;;;5007328;28;20776;-66
2022/06/30 07:28:23;;;;;;;12.00;8.40;;;31.10;99.90;;;;;;5011154;28;20193;-66
2022/06/30 07:31:11;;;;;;;11.57;7.55;;;31.40;99.90;;;;;;5002549;28;20612;-66
2022/06/30 07:33:37;;;;;;;11.30;8.60;;;31.70;99.90;;;;;;5008870;28;20200;-66
2022/06/30 07:36:04;;;;;;;14.85;8.70;;;31.90;99.90;;;;;;5015812;28;20228;-66
2022/06/30 07:38:31;;;;;;;9.80;8.25;;;32.00;99.90;;;;;;5006734;28;20570;-67
2022/06/30 07:40:57;;;;;;;11.82;8.57;;;31.80;99.90;;;;;;5007315;28;20215;-67
2022/06/30 07:43:24;;;;;;;11.38;8.95;;;31.80;99.90;;;;;;5007476;28;20193;-66
2022/06/30 07:45:52;;;;;;;13.90;8.10;;;31.60;99.90;;;;;;5011864;28;20223;-67
2022/06/30 07:48:19;;;;;;;9.15;8.13;;;31.60;99.90;;;;;;5011832;28;20662;-67
2022/06/30 07:50:46;;;;;;;9.52;8.38;;;31.60;99.90;;;;;;5016995;28;20219;-67
2022/06/30 07:53:13;;;;;;;14.07;8.55;;;31.60;99.90;;;;;;5009038;28;20200;-66
2022/06/30 07:55:39;;;;;;;11.90;8.30;;;31.70;99.90;;;;;;5010313;28;20235;-66
2022/06/30 07:58:06;;;;;;;12.23;8.60;;;31.70;99.90;;;;;;5011849;28;20573;-67
2022/06/30 08:00:33;;;;;;;13.85;8.98;;;31.30;99.90;;;;;;5009762;28;20203;-66
2022/06/30 08:03:00;;;;;;;14.35;9.88;;;31.30;99.90;;;;;;5011639;28;20268;-66
2022/06/30 08:05:26;;;;;;;12.48;9.10;;;31.30;99.90;;;;;;5011048;28;20606;-66
2022/06/30 08:07:53;;;;;;;14.82;10.85;;;31.30;99.90;;;;;;5012862;28;20606;-66
2022/06/30 08:10:20;;;;;;;15.55;9.52;;;31.00;99.90;;;;;;5017910;28;20200;-66
2022/06/30 08:12:47;;;;;;;10.68;9.02;;;30.70;99.90;;;;;;5011630;28;20200;-66
2022/06/30 08:15:13;;;;;;;14.15;10.25;;;30.70;99.90;;;;;;5011206;28;20224;-66
2022/06/30 08:17:40;;;;;;;15.55;10.10;;;30.80;99.90;;;;;;5001443;28;20411;-66
2022/06/30 08:20:07;;;;;;;12.02;10.05;;;30.80;99.90;;;;;;5011908;28;20208;-66
2022/06/30 08:22:34;;;;;;;13.75;9.77;;;30.80;99.90;;;;;;5011533;28;20204;-66
2022/06/30 08:25:01;;;;;;;15.77;10.10;;;30.80;99.90;;;;;;5005907;28;20303;-66
2022/06/30 08:27:27;;;;;;;13.85;10.27;;;30.80;99.90;;;;;;5009036;28;20188;-66
2022/06/30 08:29:54;;;;;;;14.10;10.18;;;30.50;99.90;;;;;;5011093;28;20204;-66
2022/06/30 08:32:22;;;;;;;12.50;9.73;;;30.20;99.90;;;;;;5009421;28;20207;-66
2022/06/30 08:34:49;;;;;;;13.60;10.05;;;30.10;99.90;;;;;;5008883;28;20227;-66
2022/06/30 08:37:16;;;;;;;15.48;10.00;;;30.30;99.90;;;;;;5010963;28;20208;-66
2022/06/30 08:42:30;;;;;;;13.25;9.98;;;30.30;99.90;;;;;;5008302;28;20213;-66
2022/06/30 08:47:46;;;;;;;11.55;9.25;;;30.60;99.90;;;;;;5010897;28;20206;-66
2022/06/30 08:50:15;;;;;;;16.27;10.10;;;30.60;99.90;;;;;;5006019;28;20195;-66
2022/06/30 08:52:48;;;;;;;11.57;8.98;;;30.70;99.90;;;;;;5009188;28;20223;-66
2022/06/30 08:55:16;;;;;;;12.07;8.45;;;30.80;99.90;;;;;;5004652;28;20220;-66
2022/06/30 08:57:45;;;;;;;12.05;8.38;;;30.90;99.90;;;;;;5008449;28;20208;-66
2022/06/30 09:00:14;;;;;;;12.23;8.52;;;30.90;99.90;;;;;;5009870;28;20204;-66
2022/06/30 09:02:42;;;;;;;12.82;8.45;;;31.00;99.90;;;;;;5010706;28;20204;-66
2022/06/30 09:05:09;;;;;;;10.73;7.95;;;31.00;99.90;;;;;;5004560;28;20216;-66
2022/06/30 09:07:35;;;;;;;8.77;7.88;;;31.00;99.90;;;;;;5005153;28;20200;-66
2022/06/30 09:10:05;;;;;;;12.10;8.25;;;31.00;99.90;;;;;;5010201;28;20192;-69
2022/06/30 09:12:32;;;;;;;11.23;7.72;;;31.00;99.90;;;;;;5009322;28;20196;-69
2022/06/30 09:15:00;;;;;;;9.38;7.40;;;31.00;99.90;;;;;;5006641;28;20226;-68
2022/06/30 09:17:28;;;;;;;12.77;8.65;;;31.00;99.90;;;;;;5010571;28;20200;-68
2022/06/30 09:20:10;;;;;;;10.70;6.88;;;31.00;99.90;;;;;;5010263;28;20686;-68
2022/06/30 09:22:39;;;;;;;8.77;6.03;;;31.10;99.90;;;;;;5009882;28;20214;-69
2022/06/30 09:25:20;;;;;;;6.75;5.50;;;31.20;99.90;;;;;;5000552;28;20232;-69
2022/06/30 09:27:49;;;;;;;6.90;5.95;;;31.40;99.90;;;;;;5003187;28;20192;-68
2022/06/30 09:30:20;;;;;;;10.38;6.55;;;31.60;99.90;;;;;;5007366;28;20204;-69
2022/06/30 09:33:02;;;;;;;8.35;6.68;;;31.70;99.90;;;;;;5004783;28;20227;-68
2022/06/30 09:35:30;;;;;;;6.20;4.80;;;31.70;99.90;;;;;;5009326;28;20252;-69
2022/06/30 09:38:04;;;;;;;6.45;4.90;;;31.70;99.90;;;;;;5009895;28;20392;-68
2022/06/30 09:43:33;;;;;;;9.85;6.32;;;32.10;99.90;;;;;;5007895;28;20193;-68
2022/06/30 09:46:00;;;;;;;7.40;5.60;;;32.30;99.90;;;;;;5011153;28;20234;-68
2022/06/30 09:48:28;;;;;;;6.30;5.70;;;32.40;99.90;;;;;;5009677;28;20200;-69
2022/06/30 09:50:59;;;;;;;5.45;4.88;;;32.40;99.90;;;;;;5007365;28;20204;-69
2022/06/30 09:53:27;;;;;;;6.13;3.83;;;32.60;99.90;;;;;;5004432;28;20196;-68
2022/06/30 09:55:54;;;;;;;4.55;3.53;;;32.80;99.90;;;;;;5003808;28;20224;-68
2022/06/30 09:58:29;;;;;;;4.00;3.40;;;32.80;99.90;;;;;;5007539;28;20633;-68
2022/06/30 10:00:58;;;;;;;4.85;3.83;;;32.80;99.90;;;;;;5008386;28;20761;-69
2022/06/30 10:03:33;;;;;;;4.53;3.63;;;32.80;99.90;;;;;;5010069;28;20196;-69
2022/06/30 10:06:11;;;;;;;8.30;3.38;;;32.70;99.90;;;;;;5007784;28;20247;-68
2022/06/30 10:08:38;;;;;;;4.43;2.92;;;32.80;99.90;;;;;;5009691;28;20200;-69
2022/06/30 10:11:07;;;;;;;3.35;2.75;;;32.90;99.90;;;;;;5009707;28;20218;-67
2022/06/30 10:13:39;;;;;;;2.15;2.05;;;32.90;99.90;;;;;;5009522;28;20192;-68
2022/06/30 10:16:07;;;;;;;2.92;2.58;;;32.90;99.90;;;;;;5002077;28;20216;-68
2022/06/30 10:18:39;;;;;;;5.00;2.22;;;32.90;99.90;;;;;;5009366;28;20287;-67
2022/06/30 10:21:08;;;;;;;2.72;2.17;;;32.80;98.00;;;;;;5003772;28;20225;-67
2022/06/30 10:23:35;;;;;;;3.50;2.67;;;32.80;98.80;;;;;;5008312;28;20580;-66
2022/06/30 10:26:06;;;;;;;5.07;2.83;;;32.70;98.40;;;;;;5007058;28;20230;-67
2022/06/30 10:28:33;;;;;;;6.35;3.67;;;32.70;99.40;;;;;;5008775;28;20202;-66
2022/06/30 10:31:14;;;;;;;4.88;2.80;;;32.70;99.90;;;;;;5008768;28;20662;-66
2022/06/30 10:34:02;;;;;;;3.60;3.30;;;32.50;98.70;;;;;;5006072;28;20208;-67
2022/06/30 10:36:37;;;;;;;3.97;3.10;;;32.70;99.60;;;;;;5005907;28;20286;-66
2022/06/30 10:39:13;;;;;;;4.80;3.28;;;32.80;99.00;;;;;;5008118;28;20211;-66
2022/06/30 10:41:47;;;;;;;5.72;3.70;;;32.90;99.90;;;;;;5003417;28;20666;-66
2022/06/30 10:44:25;;;;;;;3.97;3.55;;;33.10;99.90;;;;;;5008105;28;20188;-66
2022/06/30 10:46:55;;;;;;;5.97;3.83;;;33.00;99.90;;;;;;5011367;28;20461;-66
2022/06/30 10:49:26;;;;;;;4.85;4.28;;;33.10;99.90;;;;;;5007782;28;20214;-68
2022/06/30 10:52:20;;;;;;;4.68;4.05;;;33.20;99.90;;;;;;5007403;28;20596;-69
2022/06/30 10:54:47;;;;;;;7.20;4.05;;;33.30;99.90;;;;;;5000500;28;20224;-69
2022/06/30 10:57:14;;;;;;;7.43;3.90;;;33.50;99.90;;;;;;5005958;28;20203;-68
2022/06/30 10:59:44;;;;;;;4.55;3.78;;;33.50;99.90;;;;;;5008347;28;20196;-69
2022/06/30 11:02:23;;;;;;;4.72;3.83;;;33.60;99.80;;;;;;5012810;28;20206;-69
2022/06/30 11:05:11;;;;;;;5.28;3.40;;;33.60;99.60;;;;;;5009624;28;20223;-68
2022/06/30 11:07:38;;;;;;;5.60;3.47;;;33.60;98.60;;;;;;5011949;28;20230;-68
2022/06/30 11:10:05;;;;;;;6.40;3.47;;;33.60;99.10;;;;;;5012139;28;20207;-68
2022/06/30 11:12:32;;;;;;;6.90;3.45;;;33.80;98.30;;;;;;5007149;28;20193;-68
2022/06/30 11:14:59;;;;;;;5.35;3.67;;;33.70;97.50;;;;;;5011432;28;20416;-68
2022/06/30 11:17:29;;;;;;;3.50;3.13;;;33.70;98.00;;;;;;5012270;28;20199;-68
2022/06/30 11:20:13;;;;;;;5.00;3.50;;;33.60;98.60;;;;;;5012071;28;20212;-68
2022/06/30 11:22:42;;;;;;;4.10;3.35;;;33.70;97.50;;;;;;5007568;28;20230;-68
2022/06/30 11:27:17;;;;;;;6.47;3.40;;;33.50;97.60;;;;;;5011662;28;20267;-68
2022/06/30 11:28:01;;;;;;;4.72;3.58;;;33.30;98.20;;;;;;5006842;28;20663;-68
2022/06/30 11:30:32;;;;;;;6.78;3.70;;;33.40;98.00;;;;;;5011964;28;20196;-69
2022/06/30 11:32:59;;;;;;;4.95;3.85;;;33.60;98.50;;;;;;5006496;28;20196;-68
2022/06/30 11:35:30;;;;;;;3.67;3.30;;;33.80;97.80;;;;;;5011317;28;20220;-69
2022/06/30 11:37:57;;;;;;;6.47;3.13;;;33.90;97.30;;;;;;5011666;28;20563;-68
2022/06/30 11:40:24;;;;;;;4.20;3.60;;;33.90;97.90;;;;;;5008483;28;20222;-68
2022/06/30 11:42:53;;;;;;;6.00;3.47;;;33.90;97.60;;;;;;5011940;28;20193;-68
2022/06/30 11:45:23;;;;;;;3.97;3.42;;;33.90;97.40;;;;;;5011040;28;20215;-69
2022/06/30 11:47:55;;;;;;;4.13;3.33;;;33.90;97.20;;;;;;5004992;28;20690;-68
2022/06/30 11:50:23;;;;;;;6.50;3.78;;;34.00;97.40;;;;;;5011506;28;20204;-68
2022/06/30 11:52:51;;;;;;;8.15;3.88;;;34.10;97.60;;;;;;5016619;28;20224;-68
2022/06/30 11:55:18;;;;;;;5.53;3.20;;;34.20;97.40;;;;;;5009080;28;20716;-68
2022/06/30 11:57:47;;;;;;;3.85;3.35;;;34.40;96.90;;;;;;5011782;28;20204;-68
2022/06/30 12:00:16;;;;;;;5.45;4.00;;;34.20;97.30;;;;;;5011724;28;20572;-68
2022/06/30 12:02:44;;;;;;;5.95;3.72;;;34.20;97.00;;;;;;5011700;28;20196;-68
2022/06/30 12:05:15;;;;;;;6.57;4.13;;;34.20;96.90;;;;;;5009357;28;20220;-68
2022/06/30 12:07:43;;;;;;;4.55;3.58;;;34.50;97.20;;;;;;5008539;28;20250;-68
2022/06/30 12:10:14;;;;;;;4.40;3.45;;;34.70;96.00;;;;;;5010897;28;20195;-68
2022/06/30 12:12:41;;;;;;;3.70;3.30;;;34.80;95.90;;;;;;5008886;28;20211;-68
2022/06/30 12:15:13;;;;;;;4.25;3.40;;;35.10;96.10;;;;;;5011015;28;20239;-69
2022/06/30 12:17:52;;;;;;;3.65;3.28;;;35.00;95.40;;;;;;5008302;28;20196;-68
2022/06/30 12:20:21;;;;;;;6.00;3.60;;;35.00;95.80;;;;;;5011185;28;20220;-69
2022/06/30 12:22:50;;;;;;;5.20;3.78;;;35.00;95.90;;;;;;5009663;28;20203;-68
2022/06/30 12:25:18;;;;;;;4.65;3.90;;;34.70;95.20;;;;;;5010557;28;20231;-68
2022/06/30 12:27:53;;;;;;;4.32;3.60;;;34.60;95.40;;;;;;5011671;28;20556;-68
2022/06/30 12:30:23;;;;;;;3.72;3.30;;;34.70;95.20;;;;;;5008865;28;20223;-68
2022/06/30 12:32:58;;;;;;;3.65;3.33;;;34.50;95.30;;;;;;5009348;28;20592;-68
2022/06/30 12:35:27;;;;;;;4.78;3.47;;;34.70;95.50;;;;;;5010071;28;20290;-68
2022/06/30 12:37:55;;;;;;;4.07;3.60;;;34.60;95.50;;;;;;5010713;28;20204;-68
2022/06/30 12:40:26;;;;;;;5.80;3.70;;;34.60;95.50;;;;;;5006343;28;20695;-68
2022/06/30 12:42:56;;;;;;;3.88;3.22;;;34.50;95.60;;;;;;5013199;28;20203;-68
2022/06/30 12:45:38;;;;;;;4.05;3.65;;;34.30;95.20;;;;;;5010085;28;20671;-68
2022/06/30 12:48:06;;;;;;;4.28;3.50;;;34.20;95.50;;;;;;5001288;28;20199;-68
2022/06/30 12:50:38;;;;;;;4.32;3.60;;;34.30;95.20;;;;;;5009519;28;20443;-68
2022/06/30 12:53:34;;;;;;;4.47;3.90;;;34.30;95.20;;;;;;5010916;28;20219;-68
2022/06/30 12:56:11;;;;;;;5.65;3.20;;;34.10;95.30;;;;;;4991867;28;20239;-68
2022/06/30 12:58:55;;;;;;;6.00;3.80;;;34.20;95.50;;;;;;5009956;28;20287;-68
2022/06/30 13:01:25;;;;;;;8.27;4.32;;;34.20;95.70;;;;;;5009190;28;20644;-68